sensor_id;sensor_type;location;lat;lon;timestamp;pressure;altitude;pressure_sealevel;temperature;humidity
41945;BME280;63122;52.424;13.458;2023-05-10T00:01:34;100600.34;;;13.65;67.61
41945;BME280;63122;52.424;13.458;2023-05-10T00:03:30;100604.00;;;13.64;67.91
41945;BME280;63122;52.424;13.458;2023-05-10T00:05:41;100600.84;;;13.68;68.17
41945;BME280;63122;52.424;13.458;2023-05-10T00:07:46;100601.50;;;13.71;67.35
41945;BME280;63122;52.424;13.458;2023-05-10T00:12:32;100593.03;;;13.67;67.81
41945;BME280;63122;52.424;13.458;2023-05-10T00:14:32;100592.03;;;13.68;67.47
41945;BME280;63122;52.424;13.458;2023-05-10T00:16:42;100589.25;;;13.61;67.73
41945;BME280;63122;52.424;13.458;2023-05-10T00:19:04;100592.09;;;13.60;68.76
41945;BME280;63122;52.424;13.458;2023-05-10T00:21:05;100579.66;;;13.60;68.14
41945;BME280;63122;52.424;13.458;2023-05-10T00:23:03;100581.50;;;13.60;67.97
41945;BME280;63122;52.424;13.458;2023-05-10T00:24:58;100583.50;;;13.58;67.98
41945;BME280;63122;52.424;13.458;2023-05-10T00:26:54;100588.66;;;13.51;68.63
41945;BME280;63122;52.424;13.458;2023-05-10T00:29:02;100576.22;;;13.51;69.28
41945;BME280;63122;52.424;13.458;2023-05-10T00:30:58;100580.69;;;13.51;68.66
41945;BME280;63122;52.424;13.458;2023-05-10T00:33:02;100576.09;;;13.45;69.53
41945;BME280;63122;52.424;13.458;2023-05-10T00:35:07;100568.97;;;13.45;69.45
41945;BME280;63122;52.424;13.458;2023-05-10T00:37:14;100568.63;;;13.40;70.01
41945;BME280;63122;52.424;13.458;2023-05-10T00:39:10;100566.81;;;13.41;70.19
41945;BME280;63122;52.424;13.458;2023-05-10T00:41:06;100566.63;;;13.42;70.31
41945;BME280;63122;52.424;13.458;2023-05-10T00:43:01;100559.03;;;13.39;70.76
41945;BME280;63122;52.424;13.458;2023-05-10T00:44:57;100568.78;;;13.38;71.14
41945;BME280;63122;52.424;13.458;2023-05-10T00:46:52;100558.06;;;13.32;71.21
41945;BME280;63122;52.424;13.458;2023-05-10T00:48:51;100553.78;;;13.31;71.70
41945;BME280;63122;52.424;13.458;2023-05-10T00:50:47;100560.72;;;13.32;71.97
41945;BME280;63122;52.424;13.458;2023-05-10T00:52:43;100556.59;;;13.29;72.43
41945;BME280;63122;52.424;13.458;2023-05-10T00:54:39;100555.63;;;13.22;72.86
41945;BME280;63122;52.424;13.458;2023-05-10T00:56:40;100549.84;;;13.18;73.56
41945;BME280;63122;52.424;13.458;2023-05-10T00:58:40;100546.53;;;13.16;73.88
41945;BME280;63122;52.424;13.458;2023-05-10T01:00:41;100546.22;;;13.11;74.74
41945;BME280;63122;52.424;13.458;2023-05-10T01:02:37;100543.75;;;13.09;74.33
41945;BME280;63122;52.424;13.458;2023-05-10T01:04:42;100547.38;;;13.08;74.59
41945;BME280;63122;52.424;13.458;2023-05-10T01:06:46;100545.91;;;13.06;74.56
41945;BME280;63122;52.424;13.458;2023-05-10T01:08:46;100540.78;;;13.04;74.49
41945;BME280;63122;52.424;13.458;2023-05-10T01:10:42;100534.84;;;13.02;74.92
41945;BME280;63122;52.424;13.458;2023-05-10T01:12:40;100547.25;;;13.02;75.04
41945;BME280;63122;52.424;13.458;2023-05-10T01:14:38;100542.97;;;13.01;75.99
41945;BME280;63122;52.424;13.458;2023-05-10T01:16:37;100528.06;;;13.00;75.68
41945;BME280;63122;52.424;13.458;2023-05-10T01:18:36;100535.69;;;13.03;75.27
41945;BME280;63122;52.424;13.458;2023-05-10T01:20:39;100537.31;;;13.04;75.27
41945;BME280;63122;52.424;13.458;2023-05-10T01:23:17;100529.22;;;12.97;75.00
41945;BME280;63122;52.424;13.458;2023-05-10T01:25:32;100533.91;;;12.87;76.57
41945;BME280;63122;52.424;13.458;2023-05-10T01:27:50;100533.25;;;12.85;76.96
41945;BME280;63122;52.424;13.458;2023-05-10T01:30:08;100531.09;;;12.80;77.50
41945;BME280;63122;52.424;13.458;2023-05-10T01:32:16;100527.47;;;12.81;78.09
41945;BME280;63122;52.424;13.458;2023-05-10T01:34:22;100530.91;;;12.81;78.26
41945;BME280;63122;52.424;13.458;2023-05-10T01:36:26;100529.94;;;12.74;78.37
41945;BME280;63122;52.424;13.458;2023-05-10T01:38:32;100527.31;;;12.74;78.64
41945;BME280;63122;52.424;13.458;2023-05-10T01:40:33;100526.34;;;12.67;79.46
41945;BME280;63122;52.424;13.458;2023-05-10T01:42:50;100528.47;;;12.63;80.10
41945;BME280;63122;52.424;13.458;2023-05-10T01:44:58;100526.50;;;12.65;81.17
41945;BME280;63122;52.424;13.458;2023-05-10T01:47:01;100525.84;;;12.63;80.56
41945;BME280;63122;52.424;13.458;2023-05-10T01:49:25;100518.09;;;12.62;81.04
41945;BME280;63122;52.424;13.458;2023-05-10T01:51:33;100523.88;;;12.57;81.39
41945;BME280;63122;52.424;13.458;2023-05-10T01:53:31;100526.53;;;12.57;81.81
41945;BME280;63122;52.424;13.458;2023-05-10T01:55:55;100517.78;;;12.57;81.93
41945;BME280;63122;52.424;13.458;2023-05-10T01:58:25;100519.72;;;12.55;81.82
41945;BME280;63122;52.424;13.458;2023-05-10T02:00:23;100512.78;;;12.53;82.25
41945;BME280;63122;52.424;13.458;2023-05-10T02:02:20;100521.25;;;12.49;82.68
41945;BME280;63122;52.424;13.458;2023-05-10T02:04:21;100530.34;;;12.46;82.45
41945;BME280;63122;52.424;13.458;2023-05-10T02:06:20;100519.13;;;12.36;82.89
41945;BME280;63122;52.424;13.458;2023-05-10T02:08:17;100522.56;;;12.36;83.93
41945;BME280;63122;52.424;13.458;2023-05-10T02:10:13;100515.47;;;12.37;84.32
41945;BME280;63122;52.424;13.458;2023-05-10T02:12:13;100513.47;;;12.39;83.91
41945;BME280;63122;52.424;13.458;2023-05-10T02:14:15;100517.59;;;12.42;83.41
41945;BME280;63122;52.424;13.458;2023-05-10T02:16:13;100518.13;;;12.37;83.47
41945;BME280;63122;52.424;13.458;2023-05-10T02:18:10;100515.63;;;12.35;83.76
41945;BME280;63122;52.424;13.458;2023-05-10T02:20:11;100517.28;;;12.36;83.94
41945;BME280;63122;52.424;13.458;2023-05-10T02:22:09;100517.81;;;12.32;83.52
41945;BME280;63122;52.424;13.458;2023-05-10T02:24:07;100514.31;;;12.31;83.41
41945;BME280;63122;52.424;13.458;2023-05-10T02:26:05;100513.66;;;12.29;84.10
41945;BME280;63122;52.424;13.458;2023-05-10T02:28:06;100496.63;;;12.23;84.24
41945;BME280;63122;52.424;13.458;2023-05-10T02:30:06;100508.19;;;12.22;84.82
41945;BME280;63122;52.424;13.458;2023-05-10T02:32:06;100506.22;;;12.16;85.46
41945;BME280;63122;52.424;13.458;2023-05-10T02:34:02;100504.91;;;12.12;85.54
41945;BME280;63122;52.424;13.458;2023-05-10T02:36:02;100513.31;;;12.07;86.27
41945;BME280;63122;52.424;13.458;2023-05-10T02:37:58;100508.38;;;12.04;86.88
41945;BME280;63122;52.424;13.458;2023-05-10T02:39:58;100511.00;;;12.04;87.56
41945;BME280;63122;52.424;13.458;2023-05-10T02:42:02;100507.03;;;12.08;87.51
41945;BME280;63122;52.424;13.458;2023-05-10T02:44:14;100507.56;;;12.04;87.35
41945;BME280;63122;52.424;13.458;2023-05-10T02:46:25;100508.38;;;12.04;87.63
41945;BME280;63122;52.424;13.458;2023-05-10T02:48:37;100492.50;;;12.04;87.54
41945;BME280;63122;52.424;13.458;2023-05-10T02:50:51;100504.06;;;12.03;87.85
41945;BME280;63122;52.424;13.458;2023-05-10T02:53:15;100500.41;;;11.96;88.33
41945;BME280;63122;52.424;13.458;2023-05-10T02:55:41;100495.78;;;11.90;89.67
41945;BME280;63122;52.424;13.458;2023-05-10T02:58:15;100502.22;;;11.87;89.25
41945;BME280;63122;52.424;13.458;2023-05-10T03:00:49;100498.91;;;11.77;90.51
41945;BME280;63122;52.424;13.458;2023-05-10T03:02:58;100504.88;;;11.79;90.39
41945;BME280;63122;52.424;13.458;2023-05-10T03:05:10;100496.09;;;11.78;90.88
41945;BME280;63122;52.424;13.458;2023-05-10T03:07:19;100492.78;;;11.76;91.19
41945;BME280;63122;52.424;13.458;2023-05-10T03:09:26;100506.00;;;11.76;90.85
41945;BME280;63122;52.424;13.458;2023-05-10T03:12:00;100496.75;;;11.80;90.57
41945;BME280;63122;52.424;13.458;2023-05-10T03:14:39;100500.56;;;11.78;90.98
41945;BME280;63122;52.424;13.458;2023-05-10T03:17:00;100501.91;;;11.74;90.69
41945;BME280;63122;52.424;13.458;2023-05-10T03:19:35;100503.84;;;11.72;90.69
41945;BME280;63122;52.424;13.458;2023-05-10T03:22:04;100497.09;;;11.69;91.34
41945;BME280;63122;52.424;13.458;2023-05-10T03:24:14;100497.22;;;11.67;90.66
41945;BME280;63122;52.424;13.458;2023-05-10T03:26:33;100496.06;;;11.53;92.03
41945;BME280;63122;52.424;13.458;2023-05-10T03:28:53;100498.88;;;11.52;91.90
41945;BME280;63122;52.424;13.458;2023-05-10T03:31:12;100491.94;;;11.51;92.08
41945;BME280;63122;52.424;13.458;2023-05-10T03:33:13;100492.75;;;11.51;91.88
41945;BME280;63122;52.424;13.458;2023-05-10T03:35:09;100497.38;;;11.49;92.49
41945;BME280;63122;52.424;13.458;2023-05-10T03:37:08;100484.34;;;11.48;92.05
41945;BME280;63122;52.424;13.458;2023-05-10T03:39:07;100495.06;;;11.46;91.86
41945;BME280;63122;52.424;13.458;2023-05-10T03:41:03;100495.53;;;11.42;92.49
41945;BME280;63122;52.424;13.458;2023-05-10T03:43:05;100494.53;;;11.43;91.91
41945;BME280;63122;52.424;13.458;2023-05-10T03:45:01;100498.16;;;11.42;92.50
41945;BME280;63122;52.424;13.458;2023-05-10T03:46:59;100497.16;;;11.34;92.99
41945;BME280;63122;52.424;13.458;2023-05-10T03:48:57;100493.22;;;11.38;93.02
41945;BME280;63122;52.424;13.458;2023-05-10T03:50:56;100488.91;;;11.37;92.34
41945;BME280;63122;52.424;13.458;2023-05-10T03:52:52;100493.22;;;11.38;93.23
41945;BME280;63122;52.424;13.458;2023-05-10T03:54:49;100487.13;;;11.38;92.85
41945;BME280;63122;52.424;13.458;2023-05-10T03:56:45;100487.28;;;11.36;92.95
41945;BME280;63122;52.424;13.458;2023-05-10T03:58:43;100483.63;;;11.37;92.81
41945;BME280;63122;52.424;13.458;2023-05-10T04:00:42;100489.44;;;11.33;93.26
41945;BME280;63122;52.424;13.458;2023-05-10T04:02:39;100488.44;;;11.34;92.90
41945;BME280;63122;52.424;13.458;2023-05-10T04:04:37;100490.22;;;11.33;92.73
41945;BME280;63122;52.424;13.458;2023-05-10T04:06:44;100493.34;;;11.29;94.73
41945;BME280;63122;52.424;13.458;2023-05-10T04:08:43;100489.38;;;11.24;94.00
41945;BME280;63122;52.424;13.458;2023-05-10T04:10:40;100494.00;;;11.22;94.11
41945;BME280;63122;52.424;13.458;2023-05-10T04:12:38;100493.00;;;11.15;94.71
41945;BME280;63122;52.424;13.458;2023-05-10T04:14:36;100496.44;;;11.16;94.50
41945;BME280;63122;52.424;13.458;2023-05-10T04:16:31;100479.94;;;11.14;94.27
41945;BME280;63122;52.424;13.458;2023-05-10T04:18:27;100491.34;;;11.14;94.52
41945;BME280;63122;52.424;13.458;2023-05-10T04:20:22;100480.44;;;11.17;93.98
41945;BME280;63122;52.424;13.458;2023-05-10T04:22:18;100485.88;;;11.16;95.11
41945;BME280;63122;52.424;13.458;2023-05-10T04:24:13;100483.41;;;11.14;94.34
41945;BME280;63122;52.424;13.458;2023-05-10T04:26:09;100482.94;;;11.19;94.92
41945;BME280;63122;52.424;13.458;2023-05-10T04:28:04;100484.91;;;11.17;94.42
41945;BME280;63122;52.424;13.458;2023-05-10T04:30:04;100489.81;;;11.12;94.86
41945;BME280;63122;52.424;13.458;2023-05-10T04:31:59;100488.69;;;11.06;95.11
41945;BME280;63122;52.424;13.458;2023-05-10T04:33:56;100492.44;;;11.03;95.15
41945;BME280;63122;52.424;13.458;2023-05-10T04:35:51;100486.50;;;11.01;95.58
41945;BME280;63122;52.424;13.458;2023-05-10T04:37:46;100490.78;;;11.02;95.63
41945;BME280;63122;52.424;13.458;2023-05-10T04:39:41;100485.97;;;10.98;96.00
41945;BME280;63122;52.424;13.458;2023-05-10T04:41:37;100483.19;;;10.99;96.05
41945;BME280;63122;52.424;13.458;2023-05-10T04:43:33;100485.84;;;10.99;96.17
41945;BME280;63122;52.424;13.458;2023-05-10T04:45:31;100478.91;;;10.98;96.59
41945;BME280;63122;52.424;13.458;2023-05-10T04:47:26;100481.69;;;10.97;96.87
41945;BME280;63122;52.424;13.458;2023-05-10T04:49:22;100478.06;;;10.98;97.46
41945;BME280;63122;52.424;13.458;2023-05-10T04:51:17;100482.34;;;10.99;97.06
41945;BME280;63122;52.424;13.458;2023-05-10T04:53:13;100474.28;;;11.00;96.65
41945;BME280;63122;52.424;13.458;2023-05-10T04:55:08;100479.56;;;11.00;96.95
41945;BME280;63122;52.424;13.458;2023-05-10T04:57:04;100475.78;;;11.03;97.02
41945;BME280;63122;52.424;13.458;2023-05-10T04:58:59;100478.72;;;11.00;96.79
41945;BME280;63122;52.424;13.458;2023-05-10T05:01:04;100477.75;;;11.01;97.02
41945;BME280;63122;52.424;13.458;2023-05-10T05:03:03;100486.34;;;11.03;97.46
41945;BME280;63122;52.424;13.458;2023-05-10T05:04:59;100469.22;;;11.07;97.07
41945;BME280;63122;52.424;13.458;2023-05-10T05:06:54;100477.63;;;11.11;97.30
41945;BME280;63122;52.424;13.458;2023-05-10T05:08:52;100477.78;;;11.09;97.01
41945;BME280;63122;52.424;13.458;2023-05-10T05:10:48;100480.91;;;11.13;97.14
41945;BME280;63122;52.424;13.458;2023-05-10T05:12:44;100478.13;;;11.14;96.89
41945;BME280;63122;52.424;13.458;2023-05-10T05:14:39;100482.91;;;11.11;96.84
41945;BME280;63122;52.424;13.458;2023-05-10T05:16:38;100474.31;;;11.08;97.26
41945;BME280;63122;52.424;13.458;2023-05-10T05:18:33;100473.31;;;11.09;97.20
41945;BME280;63122;52.424;13.458;2023-05-10T05:20:31;100476.81;;;11.10;97.79
41945;BME280;63122;52.424;13.458;2023-05-10T05:22:26;100474.50;;;11.15;98.25
41945;BME280;63122;52.424;13.458;2023-05-10T05:24:22;100467.41;;;11.16;97.81
41945;BME280;63122;52.424;13.458;2023-05-10T05:26:17;100476.16;;;11.16;97.70
41945;BME280;63122;52.424;13.458;2023-05-10T05:28:17;100475.84;;;11.19;98.47
41945;BME280;63122;52.424;13.458;2023-05-10T05:30:12;100473.84;;;11.21;97.94
41945;BME280;63122;52.424;13.458;2023-05-10T05:32:11;100477.50;;;11.20;98.44
41945;BME280;63122;52.424;13.458;2023-05-10T05:34:06;100468.25;;;11.24;98.12
41945;BME280;63122;52.424;13.458;2023-05-10T05:36:02;100465.28;;;11.28;98.07
41945;BME280;63122;52.424;13.458;2023-05-10T05:37:57;100474.88;;;11.29;97.94
41945;BME280;63122;52.424;13.458;2023-05-10T05:39:53;100466.78;;;11.30;98.33
41945;BME280;63122;52.424;13.458;2023-05-10T05:41:48;100471.09;;;11.31;98.10
41945;BME280;63122;52.424;13.458;2023-05-10T05:43:44;100470.75;;;11.34;98.20
41945;BME280;63122;52.424;13.458;2023-05-10T05:45:39;100459.06;;;11.37;98.43
41945;BME280;63122;52.424;13.458;2023-05-10T05:47:37;100465.00;;;11.39;98.72
41945;BME280;63122;52.424;13.458;2023-05-10T05:49:34;100463.34;;;11.46;98.50
41945;BME280;63122;52.424;13.458;2023-05-10T05:51:30;100463.69;;;11.43;99.01
41945;BME280;63122;52.424;13.458;2023-05-10T05:53:27;100458.41;;;11.51;98.54
41945;BME280;63122;52.424;13.458;2023-05-10T05:55:24;100456.59;;;11.52;98.65
41945;BME280;63122;52.424;13.458;2023-05-10T05:57:19;100459.59;;;11.57;99.20
41945;BME280;63122;52.424;13.458;2023-05-10T05:59:15;100457.75;;;11.58;99.38
41945;BME280;63122;52.424;13.458;2023-05-10T06:01:11;100462.41;;;11.64;99.52
41945;BME280;63122;52.424;13.458;2023-05-10T06:03:09;100466.03;;;11.71;99.60
41945;BME280;63122;52.424;13.458;2023-05-10T06:05:05;100469.00;;;11.76;97.87
41945;BME280;63122;52.424;13.458;2023-05-10T06:07:01;100476.94;;;11.76;98.20
41945;BME280;63122;52.424;13.458;2023-05-10T06:08:56;100473.47;;;11.84;98.19
41945;BME280;63122;52.424;13.458;2023-05-10T06:10:51;100470.66;;;11.86;98.32
41945;BME280;63122;52.424;13.458;2023-05-10T06:12:46;100467.38;;;11.92;97.78
41945;BME280;63122;52.424;13.458;2023-05-10T06:14:42;100473.97;;;11.96;98.64
41945;BME280;63122;52.424;13.458;2023-05-10T06:16:37;100468.06;;;12.02;97.59
41945;BME280;63122;52.424;13.458;2023-05-10T06:18:35;100468.56;;;12.06;97.20
41945;BME280;63122;52.424;13.458;2023-05-10T06:20:31;100468.03;;;12.10;96.25
41945;BME280;63122;52.424;13.458;2023-05-10T06:22:26;100473.00;;;12.14;96.99
41945;BME280;63122;52.424;13.458;2023-05-10T06:24:21;100470.69;;;12.19;97.65
41945;BME280;63122;52.424;13.458;2023-05-10T06:26:17;100472.00;;;12.23;96.17
41945;BME280;63122;52.424;13.458;2023-05-10T06:28:13;100479.44;;;12.28;96.12
41945;BME280;63122;52.424;13.458;2023-05-10T06:30:09;100479.59;;;12.34;96.36
41945;BME280;63122;52.424;13.458;2023-05-10T06:32:06;100483.53;;;12.38;94.11
41945;BME280;63122;52.424;13.458;2023-05-10T06:34:05;100478.75;;;12.42;94.63
41945;BME280;63122;52.424;13.458;2023-05-10T06:36:00;100473.13;;;12.45;94.39
41945;BME280;63122;52.424;13.458;2023-05-10T06:37:57;100479.56;;;12.51;93.91
41945;BME280;63122;52.424;13.458;2023-05-10T06:39:52;100465.81;;;12.56;91.96
41945;BME280;63122;52.424;13.458;2023-05-10T06:41:47;100470.78;;;12.59;91.82
41945;BME280;63122;52.424;13.458;2023-05-10T06:43:43;100466.97;;;12.61;93.04
41945;BME280;63122;52.424;13.458;2023-05-10T06:45:38;100468.47;;;12.64;92.93
41945;BME280;63122;52.424;13.458;2023-05-10T06:47:33;100469.41;;;12.71;92.51
41945;BME280;63122;52.424;13.458;2023-05-10T06:49:33;100469.91;;;12.75;91.79
41945;BME280;63122;52.424;13.458;2023-05-10T06:51:29;100475.53;;;12.80;92.36
41945;BME280;63122;52.424;13.458;2023-05-10T06:53:25;100476.47;;;12.87;91.24
41945;BME280;63122;52.424;13.458;2023-05-10T06:55:20;100467.53;;;12.88;90.47
41945;BME280;63122;52.424;13.458;2023-05-10T06:57:16;100476.63;;;12.94;90.36
41945;BME280;63122;52.424;13.458;2023-05-10T06:59:23;100478.78;;;12.99;91.61
41945;BME280;63122;52.424;13.458;2023-05-10T07:01:18;100480.06;;;13.03;88.84
41945;BME280;63122;52.424;13.458;2023-05-10T07:03:14;100474.59;;;13.04;89.20
41945;BME280;63122;52.424;13.458;2023-05-10T07:05:12;100472.06;;;13.11;88.77
41945;BME280;63122;52.424;13.458;2023-05-10T07:07:07;100467.09;;;13.16;88.61
41945;BME280;63122;52.424;13.458;2023-05-10T07:09:03;100464.28;;;13.18;86.75
41945;BME280;63122;52.424;13.458;2023-05-10T07:11:00;100476.03;;;13.15;87.73
41945;BME280;63122;52.424;13.458;2023-05-10T07:12:56;100462.44;;;13.18;90.41
41945;BME280;63122;52.424;13.458;2023-05-10T07:14:52;100464.38;;;13.24;90.85
41945;BME280;63122;52.424;13.458;2023-05-10T07:16:48;100469.16;;;13.29;88.55
41945;BME280;63122;52.424;13.458;2023-05-10T07:18:43;100469.31;;;13.36;87.66
41945;BME280;63122;52.424;13.458;2023-05-10T07:20:41;100464.81;;;13.45;86.09
41945;BME280;63122;52.424;13.458;2023-05-10T07:22:37;100467.47;;;13.45;84.61
41945;BME280;63122;52.424;13.458;2023-05-10T07:25:33;100456.31;;;13.49;87.05
41945;BME280;63122;52.424;13.458;2023-05-10T07:27:20;100466.41;;;13.54;85.96
41945;BME280;63122;52.424;13.458;2023-05-10T07:29:18;100455.44;;;13.57;82.01
41945;BME280;63122;52.424;13.458;2023-05-10T07:31:13;100469.81;;;13.63;81.91
41945;BME280;63122;52.424;13.458;2023-05-10T07:33:09;100460.03;;;13.63;86.31
41945;BME280;63122;52.424;13.458;2023-05-10T07:35:05;100466.81;;;13.66;84.80
41945;BME280;63122;52.424;13.458;2023-05-10T07:37:03;100465.47;;;13.70;85.23
41945;BME280;63122;52.424;13.458;2023-05-10T07:38:59;100458.00;;;13.74;85.10
41945;BME280;63122;52.424;13.458;2023-05-10T07:40:55;100466.50;;;13.84;86.84
41945;BME280;63122;52.424;13.458;2023-05-10T07:42:50;100458.84;;;13.89;88.16
41945;BME280;63122;52.424;13.458;2023-05-10T07:44:45;100458.13;;;13.95;83.31
41945;BME280;63122;52.424;13.458;2023-05-10T07:46:40;100460.09;;;14.02;81.04
41945;BME280;63122;52.424;13.458;2023-05-10T07:48:36;100460.38;;;14.07;79.87
41945;BME280;63122;52.424;13.458;2023-05-10T07:50:31;100459.34;;;14.08;79.60
41945;BME280;63122;52.424;13.458;2023-05-10T07:53:17;100457.50;;;14.08;80.94
41945;BME280;63122;52.424;13.458;2023-05-10T07:55:43;100455.25;;;14.20;77.52
41945;BME280;63122;52.424;13.458;2023-05-10T07:57:38;100456.72;;;14.23;79.70
41945;BME280;63122;52.424;13.458;2023-05-10T07:59:34;100450.25;;;14.25;81.82
41945;BME280;63122;52.424;13.458;2023-05-10T08:01:31;100455.91;;;14.37;81.01
41945;BME280;63122;52.424;13.458;2023-05-10T08:04:23;100453.81;;;14.48;79.65
41945;BME280;63122;52.424;13.458;2023-05-10T08:10:51;100457.75;;;14.67;79.98
41945;BME280;63122;52.424;13.458;2023-05-10T08:13:26;100449.09;;;14.73;75.40
41945;BME280;63122;52.424;13.458;2023-05-10T08:16:10;100461.91;;;14.85;74.21
41945;BME280;63122;52.424;13.458;2023-05-10T08:18:23;100456.13;;;14.96;72.54
41945;BME280;63122;52.424;13.458;2023-05-10T08:20:54;100451.81;;;14.95;75.39
41945;BME280;63122;52.424;13.458;2023-05-10T08:23:25;100445.66;;;15.09;73.90
41945;BME280;63122;52.424;13.458;2023-05-10T08:25:38;100450.22;;;15.16;74.23
41945;BME280;63122;52.424;13.458;2023-05-10T08:27:38;100441.66;;;15.20;72.64
41945;BME280;63122;52.424;13.458;2023-05-10T08:29:33;100446.44;;;15.25;71.45
41945;BME280;63122;52.424;13.458;2023-05-10T08:31:42;100443.41;;;15.28;72.89
41945;BME280;63122;52.424;13.458;2023-05-10T08:33:38;100442.91;;;15.39;72.96
41945;BME280;63122;52.424;13.458;2023-05-10T08:35:36;100444.56;;;15.40;73.05
41945;BME280;63122;52.424;13.458;2023-05-10T08:37:32;100468.59;;;15.54;74.57
41945;BME280;63122;52.424;13.458;2023-05-10T08:39:28;100450.56;;;15.71;69.90
41945;BME280;63122;52.424;13.458;2023-05-10T08:41:29;100460.56;;;15.69;71.17
41945;BME280;63122;52.424;13.458;2023-05-10T08:43:53;100459.00;;;15.75;69.08
41945;BME280;63122;52.424;13.458;2023-05-10T08:48:45;100464.94;;;15.98;67.59
41945;BME280;63122;52.424;13.458;2023-05-10T09:01:57;100465.50;;;16.51;61.97
41945;BME280;63122;52.424;13.458;2023-05-10T09:03:54;100455.13;;;16.63;60.39
41945;BME280;63122;52.424;13.458;2023-05-10T09:06:06;100457.88;;;16.76;60.94
41945;BME280;63122;52.424;13.458;2023-05-10T09:08:07;100459.53;;;16.84;59.93
41945;BME280;63122;52.424;13.458;2023-05-10T09:10:14;100453.81;;;16.87;59.23
41945;BME280;63122;52.424;13.458;2023-05-10T09:12:10;100457.69;;;16.84;63.16
41945;BME280;63122;52.424;13.458;2023-05-10T09:14:09;100454.34;;;17.11;58.32
41945;BME280;63122;52.424;13.458;2023-05-10T09:16:09;100454.94;;;17.13;59.75
41945;BME280;63122;52.424;13.458;2023-05-10T09:18:15;100460.75;;;17.23;57.92
41945;BME280;63122;52.424;13.458;2023-05-10T09:20:12;100461.75;;;17.29;59.42
41945;BME280;63122;52.424;13.458;2023-05-10T09:22:11;100469.56;;;17.31;59.85
41945;BME280;63122;52.424;13.458;2023-05-10T09:24:09;100471.63;;;17.42;58.50
41945;BME280;63122;52.424;13.458;2023-05-10T09:26:05;100469.81;;;17.56;57.01
41945;BME280;63122;52.424;13.458;2023-05-10T09:28:01;100468.81;;;17.50;58.75
41945;BME280;63122;52.424;13.458;2023-05-10T09:29:58;100462.22;;;17.53;58.57
41945;BME280;63122;52.424;13.458;2023-05-10T09:32:03;100473.13;;;17.65;56.26
41945;BME280;63122;52.424;13.458;2023-05-10T09:34:07;100468.44;;;17.87;56.12
41945;BME280;63122;52.424;13.458;2023-05-10T09:36:07;100467.81;;;18.12;54.44
41945;BME280;63122;52.424;13.458;2023-05-10T09:38:05;100473.78;;;18.27;52.85
41945;BME280;63122;52.424;13.458;2023-05-10T09:40:04;100468.63;;;18.26;52.46
41945;BME280;63122;52.424;13.458;2023-05-10T09:42:27;100463.91;;;18.35;53.54
41945;BME280;63122;52.424;13.458;2023-05-10T09:45:00;100463.22;;;18.60;51.70
41945;BME280;63122;52.424;13.458;2023-05-10T09:47:26;100463.84;;;18.62;52.83
41945;BME280;63122;52.424;13.458;2023-05-10T09:49:41;100461.94;;;18.82;50.18
41945;BME280;63122;52.424;13.458;2023-05-10T09:51:59;100469.50;;;18.92;50.86
41945;BME280;63122;52.424;13.458;2023-05-10T09:54:15;100477.72;;;18.91;50.75
41945;BME280;63122;52.424;13.458;2023-05-10T09:59:07;100468.81;;;19.17;49.78
41945;BME280;63122;52.424;13.458;2023-05-10T10:12:17;100463.16;;;19.32;51.35
41945;BME280;63122;52.424;13.458;2023-05-10T10:14:59;100466.91;;;19.56;50.44
41945;BME280;63122;52.424;13.458;2023-05-10T10:17:00;100466.34;;;19.80;49.89
41945;BME280;63122;52.424;13.458;2023-05-10T10:19:00;100469.41;;;20.09;47.67
41945;BME280;63122;52.424;13.458;2023-05-10T10:20:56;100466.75;;;20.09;47.43
41945;BME280;63122;52.424;13.458;2023-05-10T10:22:52;100473.31;;;20.13;45.86
41945;BME280;63122;52.424;13.458;2023-05-10T10:24:49;100473.22;;;20.20;46.20
41945;BME280;63122;52.424;13.458;2023-05-10T10:26:48;100465.66;;;20.17;45.71
41945;BME280;63122;52.424;13.458;2023-05-10T10:28:59;100463.56;;;20.19;45.89
41945;BME280;63122;52.424;13.458;2023-05-10T10:31:00;100464.94;;;20.28;45.76
41945;BME280;63122;52.424;13.458;2023-05-10T10:33:13;100452.66;;;20.20;45.12
41945;BME280;63122;52.424;13.458;2023-05-10T10:35:20;100458.78;;;20.02;46.44
41945;BME280;63122;52.424;13.458;2023-05-10T10:37:16;100457.59;;;20.42;46.89
41945;BME280;63122;52.424;13.458;2023-05-10T10:39:15;100456.97;;;20.58;45.05
41945;BME280;63122;52.424;13.458;2023-05-10T10:41:35;100446.47;;;20.76;44.08
41945;BME280;63122;52.424;13.458;2023-05-10T10:43:41;100463.84;;;20.92;44.26
41945;BME280;63122;52.424;13.458;2023-05-10T10:46:13;100450.06;;;20.69;45.03
41945;BME280;63122;52.424;13.458;2023-05-10T10:48:23;100462.72;;;20.62;45.90
41945;BME280;63122;52.424;13.458;2023-05-10T10:50:28;100454.28;;;20.58;45.34
41945;BME280;63122;52.424;13.458;2023-05-10T10:52:42;100466.88;;;20.77;45.31
41945;BME280;63122;52.424;13.458;2023-05-10T10:55:00;100464.94;;;21.03;45.05
41945;BME280;63122;52.424;13.458;2023-05-10T10:57:26;100460.03;;;20.62;44.64
41945;BME280;63122;52.424;13.458;2023-05-10T10:59:42;100455.19;;;20.90;44.52
41945;BME280;63122;52.424;13.458;2023-05-10T11:01:59;100454.25;;;21.45;42.91
41945;BME280;63122;52.424;13.458;2023-05-10T11:04:17;100462.44;;;21.50;42.81
41945;BME280;63122;52.424;13.458;2023-05-10T11:06:36;100453.13;;;21.22;44.69
41945;BME280;63122;52.424;13.458;2023-05-10T11:47:20;100445.88;;;22.72;38.52
41945;BME280;63122;52.424;13.458;2023-05-10T12:03:06;100451.66;;;24.20;35.59